Portada
METAR-TAF:

METAR-TAF

Aeroports :

Manado, Indonèsia

latitud: 01-32N, longitud: 124-55E, altitud: 80 m

Observació

L'informe es va fer fa 13 minuts, a les 03:30 UTC
Vent 6 kt del Nord-Oest
Temperatura 31°C
Humitat 71%
Pressió 1011 hPa
Visibilitat 10 km o més
Núvols disperses a una alçada de 2100 ft

METAR: WAMM 250330Z 32006KT 9999 SCT021 31/25 Q1011 NOSIG

Hora: 10:43 (03:43 UTC)

Pronòstic

L'informe es va fer fa 4 hores i 43 minuts, a les 23:00 UTC
Pronòstic vàlid del 25 a les 00 UTC al 26 a les 06 UTC
Vent 10 kt del Est/Sud-Est
Visibilitat 10 km o més
Núvols disperses a una alçada de 2200 ft
Evolucionant progressivament
l' 25 a les 09 UTC al 25 a les 11 UTC
Vent 2 kt amb direcció variable

TAF: WAMM 242300Z 2500/2606 11010KT 9999 SCT022 BECMG 2509/2511 VRB02KT

Observacions i pronòstics meteorològics de més de 4000 aeroports (METAR i TAF).

Les estacions disponibles són els punts grocs i vermells al mapa.

Posi el ratolí al punt desitjat per veure el nom de l'estació.

Feu clic per veure les observacions i els pronòstics meteorològics.

Per canviar el mapa: feu clic els botons verds amb una creu de color negre per apropar; al botó verd amb un guió per allunyar la imatge; o en les fletxes verdes per a mapes adjacents.


METAR-TAF: